Time;durP1;ratioP1;P1;durP2;ratioP2;P2;SDS_P1;SDS_P2;PMS_P1;PMS_P2;Temp;Humidity;BMP_temperature;BMP_pressure;BME280_temperature;BME280_humidity;BME280_pressure;Samples;Min_cycle;Max_cycle;Signal;HPM_P1;HPM_P2
2023/04/20 00:02:01;;;;;;;11.57;3.97;;;;;;;6.88;50.82;101825.53;5052591;28;20124;-76
2023/04/20 00:04:28;;;;;;;7.28;3.67;;;;;;;6.86;50.44;101822.22;5062880;28;20102;-76
2023/04/20 00:06:55;;;;;;;8.38;3.45;;;;;;;6.86;50.20;101819.66;5067893;28;20526;-76
2023/04/20 00:09:21;;;;;;;8.73;3.10;;;;;;;6.82;51.27;101813.88;5049479;28;20036;-75
2023/04/20 00:11:47;;;;;;;6.38;2.88;;;;;;;6.80;51.10;101813.97;5049421;28;20027;-75
2023/04/20 00:14:14;;;;;;;16.10;3.78;;;;;;;6.80;51.19;101813.16;5064096;28;20098;-78
2023/04/20 00:16:39;;;;;;;11.60;3.20;;;;;;;6.74;51.85;101809.25;5067610;28;20024;-75
2023/04/20 00:19:06;;;;;;;9.95;3.42;;;;;;;6.72;52.62;101800.78;5051086;28;20517;-79
2023/04/20 00:21:32;;;;;;;17.58;4.07;;;;;;;6.69;52.97;101798.44;5065526;28;20119;-75
2023/04/20 00:23:57;;;;;;;7.72;4.07;;;;;;;6.69;52.55;101785.53;5041318;28;20503;-76
2023/04/20 00:26:23;;;;;;;10.40;3.38;;;;;;;6.63;51.99;101781.63;5041766;28;20040;-76
2023/04/20 00:28:51;;;;;;;7.43;2.80;;;;;;;6.60;52.30;101781.84;5052157;28;20135;-76
2023/04/20 00:31:18;;;;;;;15.73;3.70;;;;;;;6.54;52.85;101782.28;5050075;28;20479;-76
2023/04/20 00:33:52;;;;;;;7.70;3.53;;;;;;;6.62;52.59;101777.41;5065163;28;20028;-77
2023/04/20 00:36:17;;;;;;;6.97;3.88;;;;;;;6.55;52.56;101770.19;5049216;28;20032;-76
2023/04/20 00:38:42;;;;;;;9.65;3.65;;;;;;;6.52;53.06;101768.66;5061674;28;21849;-76
2023/04/20 00:41:08;;;;;;;6.32;3.30;;;;;;;6.51;52.46;101767.00;5044750;28;20807;-75
2023/04/20 00:43:33;;;;;;;7.15;3.55;;;;;;;6.54;52.55;101766.00;5048452;28;20063;-76
2023/04/20 00:45:59;;;;;;;8.93;3.60;;;;;;;6.50;52.49;101749.06;5046256;28;20048;-76
2023/04/20 00:48:24;;;;;;;7.00;3.53;;;;;;;6.48;52.09;101758.66;5054837;28;20048;-75
2023/04/20 00:50:50;;;;;;;9.05;3.63;;;;;;;6.51;51.32;101754.13;5046282;28;20036;-76
2023/04/20 00:53:17;;;;;;;7.13;3.28;;;;;;;6.45;51.13;101744.25;5044075;28;20105;-76
2023/04/20 00:55:43;;;;;;;10.07;3.50;;;;;;;6.48;50.97;101743.19;5045409;28;20194;-75
2023/04/20 00:58:11;;;;;;;7.05;3.42;;;;;;;6.42;51.55;101734.13;5029662;28;20052;-75
2023/04/20 01:00:38;;;;;;;12.88;3.72;;;;;;;6.42;52.17;101735.00;5047424;28;20040;-76
2023/04/20 01:03:04;;;;;;;10.27;3.22;;;;;;;6.42;52.42;101732.41;5042740;28;20039;-75
2023/04/20 01:05:30;;;;;;;11.85;3.28;;;;;;;6.42;51.45;101718.69;5062205;28;20628;-76
2023/04/20 01:07:56;;;;;;;7.82;3.42;;;;;;;6.41;52.47;101720.44;5061315;28;20107;-78
2023/04/20 01:10:21;;;;;;;7.40;3.22;;;;;;;6.39;52.82;101713.75;5061800;28;20108;-76
2023/04/20 01:12:47;;;;;;;12.90;3.45;;;;;;;6.32;52.09;101720.25;5033682;28;20086;-78
2023/04/20 01:15:12;;;;;;;9.10;3.38;;;;;;;6.33;52.24;101716.75;5064967;28;20028;-76
2023/04/20 01:17:38;;;;;;;6.72;3.15;;;;;;;6.30;51.91;101709.25;5062663;28;20224;-75
2023/04/20 01:20:08;;;;;;;5.80;3.10;;;;;;;6.26;51.36;101705.22;5077692;28;20509;-76
2023/04/20 01:22:41;;;;;;;13.23;3.83;;;;;;;6.26;52.38;101703.47;5049180;28;20036;-76
2023/04/20 01:25:07;;;;;;;5.13;2.80;;;;;;;6.14;50.99;101697.41;5067393;28;20037;-75
2023/04/20 01:27:33;;;;;;;12.07;3.30;;;;;;;6.16;50.74;101697.28;5068922;28;20024;-76
2023/04/20 01:30:00;;;;;;;6.47;3.30;;;;;;;6.09;51.01;101691.75;5064952;28;20033;-78
2023/04/20 01:32:25;;;;;;;6.32;3.15;;;;;;;6.11;50.88;101692.47;5040894;28;20028;-77
2023/04/20 01:34:51;;;;;;;6.97;2.72;;;;;;;6.14;50.91;101681.97;5061569;28;20379;-77
2023/04/20 01:37:16;;;;;;;12.13;3.22;;;;;;;6.04;50.27;101675.78;5034292;28;20055;-75
2023/04/20 01:39:42;;;;;;;7.57;3.55;;;;;;;5.98;50.56;101679.59;5059854;28;20098;-75
2023/04/20 01:42:08;;;;;;;7.55;3.42;;;;;;;5.95;51.13;101677.25;5063646;28;20028;-76
2023/04/20 01:44:34;;;;;;;9.15;2.65;;;;;;;5.90;50.87;101678.47;5046305;28;20040;-77
2023/04/20 01:46:59;;;;;;;7.60;2.97;;;;;;;5.89;51.38;101669.09;5054486;28;20024;-76
2023/04/20 01:49:25;;;;;;;7.65;2.70;;;;;;;5.88;52.00;101663.13;5062747;28;20592;-78
2023/04/20 01:51:51;;;;;;;14.82;3.10;;;;;;;5.82;51.66;101666.94;5067171;28;20085;-77
2023/04/20 01:54:16;;;;;;;9.30;3.20;;;;;;;5.91;51.12;101667.22;5064379;28;20158;-76
2023/04/20 01:56:42;;;;;;;12.88;2.95;;;;;;;5.94;52.19;101673.00;5065818;28;20020;-76
2023/04/20 01:59:07;;;;;;;5.97;2.45;;;;;;;5.91;52.25;101656.94;5066359;28;20469;-76
2023/04/20 02:01:33;;;;;;;3.47;2.33;;;;;;;5.94;52.02;101657.53;5033316;28;20068;-76
2023/04/20 02:03:59;;;;;;;4.20;2.58;;;;;;;5.95;52.67;101656.66;5060830;28;20556;-79
2023/04/20 02:06:24;;;;;;;6.93;3.00;;;;;;;5.93;52.80;101660.22;5063465;28;20028;-77
2023/04/20 02:08:50;;;;;;;7.75;2.90;;;;;;;5.95;53.36;101668.66;5077857;28;20090;-76
2023/04/20 02:11:15;;;;;;;6.25;3.13;;;;;;;5.98;52.59;101658.19;5063049;28;20044;-76
2023/04/20 02:13:41;;;;;;;7.82;2.72;;;;;;;6.02;52.25;101654.47;5058456;28;20090;-75
2023/04/20 02:16:06;;;;;;;5.90;2.92;;;;;;;6.03;52.80;101656.94;5065609;28;20040;-76
2023/04/20 02:18:32;;;;;;;5.93;3.00;;;;;;;6.00;52.77;101646.84;5051063;28;20042;-76
2023/04/20 02:20:59;;;;;;;6.45;3.47;;;;;;;6.13;52.31;101640.88;5068214;28;20024;-76
2023/04/20 02:23:24;;;;;;;9.77;2.80;;;;;;;6.04;52.88;101632.81;5030599;28;20033;-76
2023/04/20 02:25:50;;;;;;;6.35;3.03;;;;;;;6.12;53.09;101628.91;5044256;28;20487;-77
2023/04/20 02:28:15;;;;;;;7.13;2.90;;;;;;;6.14;53.18;101635.63;5038825;28;20388;-77
2023/04/20 02:30:41;;;;;;;8.70;3.70;;;;;;;6.11;53.68;101633.25;5047624;28;20029;-77
2023/04/20 02:33:07;;;;;;;9.23;2.10;;;;;;;6.12;53.30;101629.75;5105561;23;20043;-71
2023/04/20 02:35:33;;;;;;;13.00;3.13;;;;;;;6.11;52.73;101627.28;5104628;27;20084;-71
2023/04/20 02:37:58;;;;;;;5.22;2.75;;;;;;;6.09;52.65;101618.84;5099442;28;20059;-71
2023/04/20 02:40:24;;;;;;;6.85;2.88;;;;;;;6.07;52.22;101611.22;5085894;28;20432;-71
2023/04/20 02:42:50;;;;;;;6.97;2.50;;;;;;;6.23;52.24;101608.38;5087355;28;20080;-70
2023/04/20 02:45:16;;;;;;;11.73;2.60;;;;;;;6.09;53.01;101616.25;5084833;27;20035;-71
2023/04/20 02:47:44;;;;;;;7.97;3.10;;;;;;;6.04;52.86;101609.66;5063126;27;20016;-71
2023/04/20 02:50:11;;;;;;;27.40;3.05;;;;;;;6.12;53.05;101608.31;5086625;27;20164;-71
2023/04/20 02:52:53;;;;;;;6.45;3.08;;;;;;;6.04;53.55;101598.53;5085061;28;20484;-71
2023/04/20 02:55:19;;;;;;;7.45;2.50;;;;;;;6.03;53.54;101599.50;5085338;27;20043;-71
2023/04/20 02:57:48;;;;;;;8.77;3.00;;;;;;;6.08;54.38;101587.09;5088953;27;20099;-71
2023/04/20 03:00:15;;;;;;;7.20;2.78;;;;;;;6.14;54.08;101596.97;5071505;27;20546;-71
2023/04/20 03:02:56;;;;;;;6.07;2.63;;;;;;;6.08;54.39;101596.56;5086014;28;20062;-71
2023/04/20 03:05:22;;;;;;;6.70;2.65;;;;;;;6.01;55.09;101599.59;5072554;28;20036;-70
2023/04/20 03:07:48;;;;;;;12.10;2.80;;;;;;;6.07;54.63;101594.94;5072211;28;20024;-71
2023/04/20 03:10:14;;;;;;;7.00;3.22;;;;;;;6.04;55.40;101594.22;5070266;28;20577;-71
2023/04/20 03:12:50;;;;;;;7.32;2.88;;;;;;;6.00;54.92;101586.81;5073566;28;20054;-71
2023/04/20 03:15:29;;;;;;;8.82;2.90;;;;;;;5.96;55.62;101586.19;5073388;28;20110;-70
2023/04/20 03:18:02;;;;;;;;;;;;;;;6.00;55.90;101582.47;5084273;28;20036;-70
2023/04/20 03:20:29;;;;;;;5.30;2.72;;;;;;;5.98;55.63;101576.63;5084454;28;19918;-70
2023/04/20 03:22:55;;;;;;;6.60;3.05;;;;;;;5.96;55.55;101580.25;5082862;28;20057;-71
2023/04/20 03:25:23;;;;;;;6.95;2.85;;;;;;;5.96;56.39;101577.66;5107514;28;20382;-71
2023/04/20 03:27:54;;;;;;;5.95;3.28;;;;;;;5.93;55.21;101575.25;5084775;28;20023;-71
2023/04/20 03:30:20;;;;;;;7.35;3.30;;;;;;;5.96;55.73;101581.06;5088296;28;20443;-70
2023/04/20 03:32:50;;;;;;;6.60;3.47;;;;;;;6.04;56.06;101578.75;5087152;28;20027;-71
2023/04/20 03:35:16;;;;;;;8.40;3.05;;;;;;;5.98;56.60;101573.22;5073989;28;20041;-71
2023/04/20 03:37:42;;;;;;;8.15;3.10;;;;;;;5.93;56.92;101577.84;5070853;28;20461;-70
2023/04/20 03:40:09;;;;;;;7.95;2.58;;;;;;;5.90;57.25;101573.72;5085950;28;20053;-70
2023/04/20 03:42:36;;;;;;;4.82;2.78;;;;;;;5.89;57.29;101569.50;5087601;28;20039;-71
2023/04/20 03:45:02;;;;;;;4.15;2.63;;;;;;;5.99;56.54;101567.97;5075131;28;20066;-70
2023/04/20 03:47:28;;;;;;;5.47;3.10;;;;;;;5.94;57.39;101561.47;5067569;28;20051;-70
2023/04/20 03:49:53;;;;;;;9.23;3.17;;;;;;;5.83;58.47;101557.06;5081155;28;20040;-70
2023/04/20 03:52:19;;;;;;;10.02;3.40;;;;;;;5.83;59.00;101557.88;5098538;28;20492;-71
2023/04/20 03:54:44;;;;;;;6.72;2.85;;;;;;;5.87;58.70;101548.19;5086975;28;20040;-71
2023/04/20 03:57:13;;;;;;;5.15;2.70;;;;;;;5.93;59.10;101552.91;5084197;28;20390;-71
2023/04/20 03:59:39;;;;;;;8.75;2.97;;;;;;;5.94;57.92;101556.31;5085274;28;20042;-70
2023/04/20 04:02:06;;;;;;;7.63;2.90;;;;;;;5.88;58.59;101549.84;5081446;28;20030;-71
2023/04/20 04:04:31;;;;;;;4.78;2.88;;;;;;;5.93;59.28;101554.66;5078209;28;20035;-70
2023/04/20 04:06:57;;;;;;;6.65;3.05;;;;;;;5.80;59.81;101554.69;5087403;28;20019;-70
2023/04/20 04:09:25;;;;;;;9.18;3.25;;;;;;;5.88;59.05;101549.84;5088668;28;20099;-71
2023/04/20 04:11:51;;;;;;;9.65;3.25;;;;;;;5.84;59.79;101543.28;5067254;22;20044;-78
2023/04/20 04:14:17;;;;;;;6.68;2.45;;;;;;;5.88;60.10;101542.13;5039556;28;20048;-78
2023/04/20 04:16:42;;;;;;;7.53;3.40;;;;;;;5.90;60.11;101548.00;5039245;28;20033;-78
2023/04/20 04:19:09;;;;;;;9.90;3.00;;;;;;;5.88;59.89;101541.28;5043395;28;20044;-78
2023/04/20 04:21:36;;;;;;;6.70;2.88;;;;;;;5.85;60.61;101548.28;5048229;28;20446;-78
2023/04/20 04:24:03;;;;;;;7.55;3.03;;;;;;;5.92;61.20;101540.16;5013836;28;20061;-78
2023/04/20 04:26:44;;;;;;;8.43;3.08;;;;;;;5.89;61.68;101546.34;5035197;28;20025;-77
2023/04/20 04:29:11;;;;;;;9.48;3.30;;;;;;;5.87;62.38;101537.91;5024640;28;20592;-77
2023/04/20 04:31:37;;;;;;;11.02;3.05;;;;;;;5.84;62.86;101532.97;5035781;28;20029;-78
2023/04/20 04:34:09;;;;;;;4.60;2.95;;;;;;;5.87;63.46;101529.38;5014949;28;20094;-76
2023/04/20 04:36:43;;;;;;;7.32;3.00;;;;;;;5.88;63.73;101524.09;5043543;28;20033;-75
2023/04/20 04:39:12;;;;;;;5.93;3.25;;;;;;;5.97;62.78;101527.81;5035949;28;20037;-78
2023/04/20 04:41:42;;;;;;;9.23;3.15;;;;;;;5.85;62.98;101519.97;5030319;28;21451;-79
2023/04/20 04:44:27;;;;;;;24.40;4.22;;;;;;;5.94;63.15;101521.09;5014904;28;20491;-78
2023/04/20 04:46:53;;;;;;;9.82;3.28;;;;;;;5.89;62.73;101525.75;5050496;28;20037;-78
2023/04/20 04:49:19;;;;;;;8.00;3.53;;;;;;;5.91;63.06;101517.91;5028807;28;20547;-78
2023/04/20 04:51:46;;;;;;;9.88;4.00;;;;;;;5.83;62.95;101521.84;5026422;28;20029;-77
2023/04/20 04:54:11;;;;;;;12.70;4.38;;;;;;;5.89;63.03;101522.34;5004978;28;20555;-78
2023/04/20 04:56:37;;;;;;;6.82;3.30;;;;;;;5.90;62.46;101522.25;5028374;28;20133;-79
2023/04/20 04:59:02;;;;;;;6.18;3.20;;;;;;;5.88;62.68;101524.09;5022636;28;20046;-78
2023/04/20 05:01:28;;;;;;;12.63;3.60;;;;;;;5.87;62.98;101521.63;5011143;28;20038;-78
2023/04/20 05:03:53;;;;;;;6.20;2.97;;;;;;;5.82;63.81;101519.38;5007079;28;20111;-77
2023/04/20 05:06:18;;;;;;;8.50;3.33;;;;;;;5.78;64.05;101516.22;5026547;28;20511;-78
2023/04/20 05:08:45;;;;;;;6.80;2.95;;;;;;;5.82;64.69;101516.78;5029845;28;20434;-78
2023/04/20 05:11:10;;;;;;;8.32;3.75;;;;;;;5.92;64.38;101509.28;5028863;28;20063;-78
2023/04/20 05:13:36;;;;;;;6.03;3.67;;;;;;;5.89;64.71;101518.03;5009394;28;20037;-78
2023/04/20 05:16:01;;;;;;;8.70;3.38;;;;;;;5.87;64.46;101519.88;5010065;28;20029;-78
2023/04/20 05:18:27;;;;;;;9.65;3.25;;;;;;;5.86;64.83;101513.09;5001991;28;20046;-79
2023/04/20 05:20:53;;;;;;;7.90;3.53;;;;;;;5.90;65.16;101508.56;5027265;28;20030;-78
2023/04/20 05:23:18;;;;;;;16.00;4.07;;;;;;;5.93;65.63;101516.88;5037983;28;20049;-77
2023/04/20 05:25:44;;;;;;;9.13;3.45;;;;;;;5.93;65.47;101521.19;5040143;28;20104;-78
2023/04/20 05:28:10;;;;;;;7.00;3.55;;;;;;;5.89;65.93;101520.59;5004718;28;20045;-78
2023/04/20 05:30:35;;;;;;;6.55;3.65;;;;;;;5.94;65.73;101510.81;5006833;28;20514;-79
2023/04/20 05:33:01;;;;;;;9.13;4.28;;;;;;;5.94;66.52;101515.13;5023878;28;20087;-78
2023/04/20 05:35:26;;;;;;;12.48;4.10;;;;;;;5.98;65.92;101514.00;5029208;28;20511;-78
2023/04/20 05:37:51;;;;;;;8.43;3.60;;;;;;;5.96;66.12;101513.31;5008325;28;20406;-78
2023/04/20 05:40:17;;;;;;;10.98;3.80;;;;;;;5.96;66.92;101526.19;5025245;28;20074;-77
2023/04/20 05:42:43;;;;;;;9.68;3.50;;;;;;;6.01;66.72;101524.09;5022658;28;20029;-78
2023/04/20 05:45:09;;;;;;;10.65;4.43;;;;;;;5.97;67.49;101525.22;5028792;28;20033;-79
2023/04/20 05:47:34;;;;;;;10.50;4.22;;;;;;;5.97;67.68;101522.66;5040433;28;20026;-78
2023/04/20 05:50:00;;;;;;;16.98;5.05;;;;;;;5.99;68.66;101528.50;5025721;28;20483;-79
2023/04/20 05:52:25;;;;;;;8.10;4.35;;;;;;;6.02;67.69;101520.59;5014929;28;20033;-80
2023/04/20 05:54:51;;;;;;;14.90;5.00;;;;;;;5.98;68.44;101521.75;5008641;28;20101;-77
2023/04/20 05:57:17;;;;;;;11.80;4.32;;;;;;;6.02;68.82;101518.81;5025062;28;20116;-78
2023/04/20 05:59:42;;;;;;;7.57;3.80;;;;;;;5.98;69.25;101517.41;5021573;28;20111;-78
2023/04/20 06:02:08;;;;;;;9.15;4.15;;;;;;;6.06;69.24;101516.03;5024367;28;20033;-79
2023/04/20 06:04:33;;;;;;;8.40;4.20;;;;;;;6.03;69.67;101511.94;5017020;28;20042;-78
2023/04/20 06:06:59;;;;;;;12.52;4.43;;;;;;;6.04;70.20;101514.38;5025014;28;20029;-79
2023/04/20 06:09:25;;;;;;;12.73;4.80;;;;;;;6.04;70.30;101508.44;5037341;28;20549;-78
2023/04/20 06:11:50;;;;;;;11.48;4.70;;;;;;;6.15;70.34;101499.94;5036763;28;20041;-78
2023/04/20 06:14:16;;;;;;;11.82;4.53;;;;;;;6.30;70.21;101498.84;5030211;28;20064;-79
2023/04/20 06:16:41;;;;;;;15.13;5.00;;;;;;;6.36;70.20;101497.56;5047267;28;20032;-78
2023/04/20 06:19:07;;;;;;;13.80;5.00;;;;;;;6.38;70.25;101493.94;5042180;28;20486;-78
2023/04/20 06:21:34;;;;;;;10.18;4.80;;;;;;;6.40;71.18;101499.81;5042501;28;20037;-78
2023/04/20 06:23:59;;;;;;;10.57;6.03;;;;;;;6.39;71.60;101494.78;5028209;28;20043;-78
2023/04/20 06:26:25;;;;;;;9.80;4.38;;;;;;;6.46;71.58;101489.97;5019770;28;20021;-78
2023/04/20 06:28:52;;;;;;;15.35;5.28;;;;;;;6.51;71.78;101495.63;5026698;28;20507;-79
2023/04/20 06:31:18;;;;;;;7.63;4.57;;;;;;;6.48;72.29;101499.25;5027871;28;20040;-78
2023/04/20 06:33:43;;;;;;;11.48;4.50;;;;;;;6.51;72.94;101493.06;5039019;28;20079;-77
2023/04/20 06:36:09;;;;;;;10.27;4.88;;;;;;;6.58;73.14;101496.81;5041090;28;20076;-75
2023/04/20 06:38:35;;;;;;;15.13;5.30;;;;;;;6.54;74.28;101490.25;5027565;28;20038;-77
2023/04/20 06:41:03;;;;;;;13.00;5.63;;;;;;;6.56;75.08;101498.69;5023193;28;20083;-80
2023/04/20 06:43:29;;;;;;;8.25;4.93;;;;;;;6.72;75.24;101494.03;5038066;28;20076;-78
2023/04/20 06:45:55;;;;;;;13.50;5.30;;;;;;;6.75;74.11;101493.81;5029885;28;20094;-78
2023/04/20 06:48:21;;;;;;;22.60;8.55;;;;;;;6.69;73.60;101489.13;5017766;28;20044;-77
2023/04/20 06:50:48;;;;;;;11.02;5.28;;;;;;;6.77;73.96;101484.22;5036724;28;20029;-77
2023/04/20 06:53:13;;;;;;;9.55;5.30;;;;;;;6.70;73.54;101484.78;5026675;28;20467;-78
2023/04/20 06:55:39;;;;;;;13.45;6.15;;;;;;;6.68;74.58;101489.22;5039123;28;20063;-79
2023/04/20 06:58:05;;;;;;;12.73;6.30;;;;;;;6.65;74.12;101489.44;5026811;28;20083;-77
2023/04/20 07:00:30;;;;;;;11.88;5.80;;;;;;;6.60;75.84;101493.19;5043897;28;20047;-77
2023/04/20 07:02:56;;;;;;;10.93;5.55;;;;;;;6.62;75.00;101485.34;5037023;28;20037;-78
2023/04/20 07:05:21;;;;;;;17.75;6.15;;;;;;;6.57;75.50;101477.97;5040234;28;20089;-79
2023/04/20 07:07:47;;;;;;;10.95;6.20;;;;;;;6.59;76.33;101490.72;5037556;28;20036;-79
2023/04/20 07:10:13;;;;;;;9.88;5.53;;;;;;;6.61;76.67;101486.28;5040560;28;20057;-78
2023/04/20 07:12:40;;;;;;;12.50;6.85;;;;;;;6.58;76.27;101491.66;5039092;28;20047;-77
2023/04/20 07:15:06;;;;;;;16.85;6.25;;;;;;;6.55;76.92;101494.47;5045553;28;20033;-78
2023/04/20 07:17:32;;;;;;;9.38;6.22;;;;;;;6.58;76.27;101492.50;5023366;28;20029;-78
2023/04/20 07:20:05;;;;;;;14.73;6.18;;;;;;;6.60;76.89;101493.19;5039187;28;20044;-79
2023/04/20 07:22:35;;;;;;;14.40;6.97;;;;;;;6.57;77.04;101492.59;5025666;28;20033;-80
2023/04/20 07:25:02;;;;;;;13.63;6.57;;;;;;;6.57;77.61;101502.91;5023040;28;20041;-81
2023/04/20 07:27:28;;;;;;;10.93;5.88;;;;;;;6.55;77.53;101486.72;5015978;28;20032;-78
2023/04/20 07:29:55;;;;;;;11.10;6.90;;;;;;;6.51;78.19;101487.91;5024666;28;20048;-77
2023/04/20 07:32:20;;;;;;;14.05;6.70;;;;;;;6.58;78.17;101489.09;5044247;28;20514;-77
2023/04/20 07:34:46;;;;;;;11.07;6.40;;;;;;;6.66;78.94;101473.88;5036726;28;20040;-77
2023/04/20 07:37:11;;;;;;;11.95;6.90;;;;;;;6.76;78.57;101489.47;5041721;28;20040;-78
2023/04/20 07:39:37;;;;;;;12.90;5.53;;;;;;;6.66;78.53;101486.75;5036151;28;20047;-77
2023/04/20 07:42:03;;;;;;;11.55;5.68;;;;;;;6.72;78.59;101480.34;5005993;28;20048;-77
2023/04/20 07:44:29;;;;;;;9.77;5.53;;;;;;;6.70;78.64;101495.09;5022871;28;20029;-78
2023/04/20 07:46:56;;;;;;;12.52;6.30;;;;;;;6.68;79.42;101486.66;5039492;28;20534;-78
2023/04/20 07:49:22;;;;;;;12.18;6.30;;;;;;;6.72;79.96;101488.06;5036591;28;20079;-79
2023/04/20 07:51:47;;;;;;;9.82;5.72;;;;;;;6.76;80.08;101495.47;5041456;28;20053;-79
2023/04/20 07:54:13;;;;;;;9.93;6.18;;;;;;;6.62;80.15;101503.41;5037691;28;20044;-79
2023/04/20 07:56:38;;;;;;;10.88;6.60;;;;;;;6.58;80.82;101505.38;5028425;28;20033;-78
2023/04/20 07:59:04;;;;;;;14.38;7.20;;;;;;;6.59;81.64;101498.44;5039063;28;20048;-77
2023/04/20 08:01:30;;;;;;;13.15;6.60;;;;;;;6.53;81.57;101497.16;5041582;28;20051;-78
2023/04/20 08:03:55;;;;;;;14.13;7.15;;;;;;;6.51;81.40;101498.22;5028769;28;20415;-77
2023/04/20 08:06:21;;;;;;;12.60;7.68;;;;;;;6.49;82.28;101493.16;5022020;28;20040;-78
2023/04/20 08:08:46;;;;;;;13.93;7.32;;;;;;;6.53;82.44;101501.50;5040998;28;20120;-78
2023/04/20 08:11:12;;;;;;;16.13;8.60;;;;;;;6.47;83.04;101491.63;5044624;28;20044;-77
2023/04/20 08:13:37;;;;;;;14.57;8.15;;;;;;;6.52;82.65;101495.53;5029245;28;20067;-77
2023/04/20 08:16:03;;;;;;;15.43;8.05;;;;;;;6.55;82.74;101489.31;5041847;28;20035;-78
2023/04/20 08:18:31;;;;;;;12.70;7.80;;;;;;;6.57;82.52;101498.59;5029833;28;20032;-77
2023/04/20 08:20:57;;;;;;;12.80;8.13;;;;;;;6.57;81.98;101497.75;5046618;28;20140;-77
2023/04/20 08:23:26;;;;;;;11.98;7.78;;;;;;;6.62;82.17;101475.84;5035007;28;20499;-78
2023/04/20 08:25:53;;;;;;;14.23;7.70;;;;;;;6.63;82.84;101474.13;5029213;28;20036;-78
2023/04/20 08:28:20;;;;;;;10.88;7.32;;;;;;;6.67;82.37;101472.13;5031414;28;20124;-78
2023/04/20 08:30:45;;;;;;;12.15;7.80;;;;;;;6.90;83.21;101473.00;5030224;28;20036;-77
2023/04/20 08:33:11;;;;;;;14.73;7.60;;;;;;;7.00;83.51;101467.00;5042557;28;20395;-77
2023/04/20 08:35:37;;;;;;;10.00;6.63;;;;;;;6.87;81.50;101465.47;5014218;28;20025;-77
2023/04/20 08:38:02;;;;;;;11.85;6.95;;;;;;;6.66;81.54;101458.41;5026485;28;20099;-78
2023/04/20 08:40:30;;;;;;;12.18;7.18;;;;;;;6.95;81.81;101465.72;5039449;28;20036;-79
2023/04/20 08:42:56;;;;;;;16.77;7.32;;;;;;;6.93;81.52;101460.69;5045491;28;20033;-78
2023/04/20 08:45:21;;;;;;;12.43;7.03;;;;;;;6.93;80.95;101462.44;5045444;28;20471;-79
2023/04/20 08:47:48;;;;;;;15.00;8.30;;;;;;;6.89;80.46;101468.75;5040198;28;20032;-78
2023/04/20 08:50:15;;;;;;;15.48;6.88;;;;;;;6.93;80.93;101465.00;5039893;28;20457;-79
2023/04/20 08:52:40;;;;;;;13.65;7.28;;;;;;;6.85;80.72;101464.78;5026497;28;20029;-78
2023/04/20 08:55:07;;;;;;;15.07;7.18;;;;;;;6.95;80.83;101463.13;5031897;28;20037;-78
2023/04/20 08:57:32;;;;;;;11.52;6.75;;;;;;;6.95;79.84;101463.13;5043036;28;20040;-78
2023/04/20 08:59:58;;;;;;;12.00;7.82;;;;;;;7.00;80.56;101456.69;5026124;28;20029;-79
2023/04/20 09:02:23;;;;;;;11.25;7.35;;;;;;;7.13;80.62;101464.31;5041032;28;20025;-79
2023/04/20 09:04:59;;;;;;;11.05;6.88;;;;;;;7.14;79.12;101462.56;5037465;28;20521;-78
2023/04/20 09:07:25;;;;;;;13.38;7.07;;;;;;;7.18;79.09;101461.41;5044015;28;20033;-78
2023/04/20 09:09:55;;;;;;;15.18;6.55;;;;;;;7.15;78.89;101472.75;5024326;28;20120;-77
2023/04/20 09:12:21;;;;;;;9.23;6.03;;;;;;;7.14;77.84;101471.13;5040510;28;20063;-77
2023/04/20 09:14:47;;;;;;;11.50;6.25;;;;;;;7.09;78.63;101455.19;5041919;28;20036;-77
2023/04/20 09:17:14;;;;;;;10.57;6.05;;;;;;;7.05;78.62;101456.34;5038771;28;20395;-79
2023/04/20 09:19:43;;;;;;;12.27;6.32;;;;;;;7.05;78.80;101450.38;5040782;28;20598;-80
2023/04/20 09:22:08;;;;;;;10.30;6.20;;;;;;;7.07;78.09;101448.50;5030240;28;20033;-78
2023/04/20 09:24:35;;;;;;;12.30;6.05;;;;;;;7.22;78.03;101445.56;5043122;28;20044;-79
2023/04/20 09:27:15;;;;;;;11.10;5.78;;;;;;;7.39;78.26;101452.00;5029262;28;20755;-78
2023/04/20 09:29:41;;;;;;;12.48;7.00;;;;;;;7.40;77.94;101442.50;5026389;28;20430;-78
2023/04/20 09:32:09;;;;;;;12.68;5.95;;;;;;;7.50;77.29;101451.16;5048637;28;20037;-78
2023/04/20 09:34:43;;;;;;;15.30;6.78;;;;;;;7.40;75.57;101442.50;5025398;28;20052;-78
2023/04/20 09:37:10;;;;;;;13.23;6.85;;;;;;;7.43;75.94;101452.59;5028138;28;20504;-78
2023/04/20 09:39:41;;;;;;;14.35;6.60;;;;;;;7.28;77.22;101451.19;5032507;28;20040;-79
2023/04/20 09:42:12;;;;;;;12.95;5.85;;;;;;;7.25;76.93;101444.50;5027643;28;20041;-78
2023/04/20 09:44:39;;;;;;;11.05;6.75;;;;;;;7.14;77.68;101447.91;5023151;28;20183;-76
2023/04/20 09:47:06;;;;;;;12.57;7.18;;;;;;;7.00;77.91;101448.97;5043468;28;20095;-78
2023/04/20 09:49:32;;;;;;;14.32;6.22;;;;;;;7.16;77.57;101440.88;5038382;28;20044;-78
2023/04/20 09:52:01;;;;;;;10.73;6.60;;;;;;;7.20;76.86;101444.88;5041849;28;20091;-78
2023/04/20 09:54:27;;;;;;;10.38;6.30;;;;;;;7.16;78.46;101442.66;5037257;28;20037;-78
2023/04/20 09:56:53;;;;;;;14.07;7.15;;;;;;;7.09;78.44;101437.13;5016931;28;20043;-77
2023/04/20 09:59:20;;;;;;;11.38;6.28;;;;;;;7.17;78.59;101436.53;5026738;28;20049;-80
2023/04/20 10:01:46;;;;;;;6.28;4.25;;;;;;;7.15;79.44;101449.53;5040476;28;20434;-77
2023/04/20 10:04:13;;;;;;;7.28;4.13;;;;;;;6.96;82.43;101450.13;5027147;28;20056;-78
2023/04/20 10:06:39;;;;;;;12.73;5.10;;;;;;;6.81;86.82;101444.38;5041514;28;20420;-80
2023/04/20 10:09:07;;;;;;;13.55;6.53;;;;;;;6.63;88.78;101444.00;5026531;28;20033;-79
2023/04/20 10:11:34;;;;;;;10.63;6.50;;;;;;;6.71;90.60;101435.69;5052587;23;20045;-79
2023/04/20 10:14:14;;;;;;;13.13;7.47;;;;;;;7.02;92.13;101428.22;5070652;28;20044;-77
2023/04/20 10:16:40;;;;;;;11.65;7.18;;;;;;;7.35;94.25;101426.56;5065982;28;20501;-76
2023/04/20 10:19:06;;;;;;;19.58;8.65;;;;;;;7.57;92.07;101425.69;5084109;28;20058;-77
2023/04/20 10:21:32;;;;;;;14.07;8.32;;;;;;;7.58;90.75;101420.41;5064852;28;20566;-78
2023/04/20 10:24:01;;;;;;;13.52;8.50;;;;;;;7.79;93.67;101417.06;5078010;28;20035;-79
2023/04/20 10:26:41;;;;;;;17.25;8.32;;;;;;;7.98;90.92;101412.06;5071338;28;20508;-77
2023/04/20 10:29:07;;;;;;;11.82;7.57;;;;;;;8.01;88.65;101407.59;5069496;28;20059;-78
2023/04/20 10:31:40;;;;;;;12.02;7.28;;;;;;;8.05;85.82;101409.00;5085331;28;20129;-77
2023/04/20 10:34:06;;;;;;;10.30;7.05;;;;;;;8.09;84.58;101393.09;5072783;28;20035;-78
2023/04/20 10:36:36;;;;;;;10.65;6.78;;;;;;;8.23;80.65;101397.16;5088429;28;20023;-79
2023/04/20 10:39:31;;;;;;;11.55;6.88;;;;;;;8.54;82.26;101390.28;5087675;28;20094;-79
2023/04/20 10:41:57;;;;;;;8.82;6.13;;;;;;;8.81;78.97;101382.94;5105389;28;20044;-77
2023/04/20 10:44:26;;;;;;;9.35;5.88;;;;;;;9.58;77.63;101384.06;5066796;28;20059;-76
2023/04/20 10:46:53;;;;;;;9.52;5.65;;;;;;;10.10;78.16;101363.88;5107174;27;20035;-76
2023/04/20 10:49:24;;;;;;;7.50;5.43;;;;;;;10.32;75.46;101373.13;5083936;28;20569;-77
2023/04/20 10:51:51;;;;;;;9.88;5.70;;;;;;;10.40;74.04;101378.44;5071600;28;20055;-78
2023/04/20 10:54:17;;;;;;;7.25;5.15;;;;;;;10.42;73.54;101378.31;5107146;27;20081;-78
2023/04/20 10:56:43;;;;;;;6.35;4.55;;;;;;;10.39;70.75;101373.41;5106963;27;20497;-78
2023/04/20 10:59:15;;;;;;;8.93;5.15;;;;;;;10.48;70.16;101362.19;5086728;28;20043;-76
2023/04/20 11:01:41;;;;;;;8.88;4.85;;;;;;;10.62;70.76;101366.88;5089844;28;20035;-75
2023/04/20 11:04:10;;;;;;;8.30;4.93;;;;;;;10.32;70.93;101357.56;5076785;28;20046;-76
2023/04/20 11:06:40;;;;;;;10.48;5.47;;;;;;;10.14;70.55;101360.84;5067036;28;20028;-76
2023/04/20 11:09:18;;;;;;;7.82;5.03;;;;;;;9.94;72.96;101360.09;5074686;28;20044;-77
2023/04/20 11:11:44;;;;;;;9.02;4.72;;;;;;;9.63;73.97;101364.59;5103367;28;20122;-77
2023/04/20 11:14:11;;;;;;;7.53;4.35;;;;;;;9.59;73.80;101357.22;5083143;28;20036;-75
2023/04/20 11:16:37;;;;;;;7.13;4.53;;;;;;;9.41;73.68;101360.47;5082837;28;20040;-76
2023/04/20 11:19:04;;;;;;;6.72;3.85;;;;;;;9.33;73.88;101355.16;5056841;28;20031;-76
2023/04/20 11:21:38;;;;;;;4.65;3.88;;;;;;;9.52;71.95;101356.94;5068633;28;20465;-78
2023/04/20 11:24:26;;;;;;;5.93;3.63;;;;;;;9.77;72.27;101354.78;5068298;28;20039;-79
2023/04/20 11:26:55;;;;;;;6.15;3.25;;;;;;;9.81;71.31;101343.97;5063363;28;20775;-76
2023/04/20 11:29:37;;;;;;;7.63;3.38;;;;;;;9.63;69.17;101348.25;5065880;28;20152;-75